Time;durP1;ratioP1;P1;durP2;ratioP2;P2;SDS_P1;SDS_P2;PMS_P1;PMS_P2;Temp;Humidity;BMP_temperature;BMP_pressure;BME280_temperature;BME280_humidity;BME280_pressure;Samples;Min_cycle;Max_cycle;Signal;HPM_P1;HPM_P2
2022/10/29 00:01:26;;;;;;;22.03;20.27;;;15.30;88.90;;;;;;5058236;28;20467;-76
2022/10/29 00:03:53;;;;;;;22.40;20.80;;;15.20;89.10;;;;;;5062613;28;20897;-76
2022/10/29 00:06:21;;;;;;;24.67;22.27;;;15.10;89.50;;;;;;5056193;28;20509;-76
2022/10/29 00:08:48;;;;;;;23.07;21.60;;;15.00;89.70;;;;;;5069211;28;20616;-76
2022/10/29 00:11:18;;;;;;;23.73;21.97;;;15.00;89.80;;;;;;5058106;28;20531;-76
2022/10/29 00:13:46;;;;;;;22.80;21.07;;;15.10;89.30;;;;;;5066289;28;20454;-76
2022/10/29 00:16:15;;;;;;;23.20;21.10;;;15.00;89.30;;;;;;5067632;28;20837;-76
2022/10/29 00:18:42;;;;;;;23.07;20.90;;;14.90;90.00;;;;;;5051800;28;20455;-76
2022/10/29 00:21:12;;;;;;;23.97;22.20;;;14.90;90.20;;;;;;5058729;28;20450;-76
2022/10/29 00:23:40;;;;;;;23.30;21.30;;;14.90;89.90;;;;;;5052753;28;20564;-76
2022/10/29 00:26:07;;;;;;;22.20;20.10;;;14.80;90.10;;;;;;5075470;28;20507;-76
2022/10/29 00:28:35;;;;;;;24.00;21.37;;;14.80;90.40;;;;;;5070140;28;20467;-76
2022/10/29 00:31:04;;;;;;;22.80;21.10;;;14.80;90.50;;;;;;5054429;28;20458;-76
2022/10/29 00:33:31;;;;;;;23.33;21.07;;;14.80;90.00;;;;;;5047019;28;20824;-76
2022/10/29 00:36:00;;;;;;;22.80;21.10;;;14.80;89.80;;;;;;5053464;28;20907;-76
2022/10/29 00:38:27;;;;;;;23.47;21.57;;;14.80;89.90;;;;;;5051924;28;20554;-76
2022/10/29 00:40:55;;;;;;;23.87;20.30;;;14.70;90.60;;;;;;5055131;28;20944;-76
2022/10/29 00:43:25;;;;;;;22.50;20.63;;;14.70;90.80;;;;;;5058328;28;20545;-76
2022/10/29 00:45:54;;;;;;;21.40;20.00;;;14.70;91.60;;;;;;5064394;28;20478;-76
2022/10/29 00:48:24;;;;;;;22.27;20.03;;;14.70;91.60;;;;;;5070770;28;20459;-76
2022/10/29 00:50:53;;;;;;;22.30;20.27;;;14.70;91.00;;;;;;5056831;28;20459;-76
2022/10/29 00:53:24;;;;;;;22.73;21.00;;;14.70;90.40;;;;;;5054418;28;20465;-76
2022/10/29 00:55:51;;;;;;;21.23;19.47;;;14.70;90.60;;;;;;5064968;28;20862;-76
2022/10/29 00:58:20;;;;;;;22.10;20.67;;;14.70;90.60;;;;;;5066012;28;20827;-76
2022/10/29 01:00:47;;;;;;;22.90;20.70;;;14.70;89.90;;;;;;5048850;28;20827;-76
2022/10/29 01:03:14;;;;;;;21.80;20.27;;;14.70;89.60;;;;;;5074178;28;20639;-76
2022/10/29 01:05:41;;;;;;;22.73;20.87;;;14.70;90.00;;;;;;5063792;28;20477;-76
2022/10/29 01:08:08;;;;;;;22.97;20.90;;;14.70;90.50;;;;;;5056153;28;20450;-76
2022/10/29 01:10:49;;;;;;;23.90;21.60;;;14.70;89.90;;;;;;5054891;28;20561;-76
2022/10/29 01:13:32;;;;;;;22.37;20.37;;;14.70;89.60;;;;;;5056984;28;20465;-76
2022/10/29 01:16:08;;;;;;;23.33;21.13;;;14.70;89.60;;;;;;5053838;28;20833;-76
2022/10/29 01:18:41;;;;;;;23.37;21.70;;;14.70;89.50;;;;;;5063156;28;20446;-76
2022/10/29 01:21:38;;;;;;;25.27;23.07;;;14.70;89.10;;;;;;5053523;28;20453;-76
2022/10/29 01:24:41;;;;;;;23.50;21.40;;;14.80;89.60;;;;;;5062360;28;20836;-76
2022/10/29 01:27:35;;;;;;;23.10;21.30;;;14.80;89.10;;;;;;5048473;28;20455;-76
2022/10/29 01:30:12;;;;;;;23.70;21.73;;;14.80;89.30;;;;;;5058336;28;20828;-76
2022/10/29 01:32:51;;;;;;;24.07;22.00;;;14.80;89.40;;;;;;5056304;28;20458;-76
2022/10/29 01:35:26;;;;;;;23.43;21.40;;;14.90;88.90;;;;;;5054316;28;21019;-76
2022/10/29 01:38:05;;;;;;;24.83;22.83;;;14.90;88.70;;;;;;5053045;28;20460;-76
2022/10/29 01:40:37;;;;;;;22.83;20.77;;;14.90;88.90;;;;;;5073665;28;20459;-76
2022/10/29 01:43:08;;;;;;;24.27;22.20;;;14.90;88.80;;;;;;5066485;28;20458;-76
2022/10/29 01:45:38;;;;;;;23.20;21.80;;;15.00;88.50;;;;;;5063565;28;20516;-76
2022/10/29 01:48:11;;;;;;;23.67;21.67;;;15.00;88.40;;;;;;5066567;28;20458;-76
2022/10/29 01:50:42;;;;;;;23.27;21.60;;;15.00;88.40;;;;;;5055126;28;20458;-76
2022/10/29 01:53:09;;;;;;;23.63;21.90;;;15.00;88.50;;;;;;5080712;28;20454;-76
2022/10/29 01:55:36;;;;;;;25.63;23.53;;;14.90;88.60;;;;;;5056717;28;21004;-76
2022/10/29 01:58:04;;;;;;;27.57;22.87;;;14.90;88.60;;;;;;5058703;28;20467;-76
2022/10/29 02:00:37;;;;;;;23.37;21.53;;;14.90;88.60;;;;;;5044911;28;20859;-76
2022/10/29 02:03:17;;;;;;;24.60;22.80;;;15.00;88.20;;;;;;5062334;28;20577;-76
2022/10/29 02:05:52;;;;;;;24.73;22.57;;;15.00;88.30;;;;;;5059854;28;21099;-76
2022/10/29 02:08:31;;;;;;;23.90;21.83;;;15.00;88.50;;;;;;5053886;28;20471;-76
2022/10/29 02:11:05;;;;;;;23.43;21.60;;;15.00;88.40;;;;;;5057072;28;20488;-76
2022/10/29 02:13:37;;;;;;;23.23;21.53;;;15.00;88.50;;;;;;5055712;28;20471;-76
2022/10/29 02:16:08;;;;;;;25.80;23.20;;;15.00;88.60;;;;;;5057635;28;20566;-76
2022/10/29 02:18:41;;;;;;;25.53;22.73;;;15.00;88.50;;;;;;5054786;28;20450;-76
2022/10/29 02:21:08;;;;;;;25.07;23.10;;;15.00;88.50;;;;;;5057405;28;20446;-76
2022/10/29 02:23:35;;;;;;;24.37;22.60;;;15.00;88.50;;;;;;5066462;28;20461;-76
2022/10/29 02:26:02;;;;;;;23.97;21.90;;;15.00;88.40;;;;;;5062816;28;20721;-76
2022/10/29 02:28:29;;;;;;;26.63;24.20;;;15.00;88.60;;;;;;5053345;28;20463;-76
2022/10/29 02:30:56;;;;;;;24.17;22.00;;;15.00;88.60;;;;;;5063334;28;20458;-76
2022/10/29 02:33:23;;;;;;;24.57;22.57;;;15.00;88.40;;;;;;5077870;28;20459;-76
2022/10/29 02:35:53;;;;;;;26.27;24.10;;;15.00;88.20;;;;;;5053402;28;20841;-76
2022/10/29 02:38:20;;;;;;;25.90;24.10;;;15.00;88.20;;;;;;5055021;28;20461;-76
2022/10/29 02:40:47;;;;;;;25.47;23.40;;;15.00;88.30;;;;;;5058907;28;20461;-76
2022/10/29 02:43:14;;;;;;;25.73;24.03;;;15.10;88.20;;;;;;5057998;28;20755;-76
2022/10/29 02:45:41;;;;;;;25.30;23.30;;;15.10;88.10;;;;;;5066878;28;20591;-76
2022/10/29 02:48:08;;;;;;;25.27;23.30;;;15.00;88.30;;;;;;5058476;28;20466;-76
2022/10/29 02:50:35;;;;;;;25.10;23.20;;;15.00;88.50;;;;;;5065164;28;20835;-76
2022/10/29 02:53:03;;;;;;;23.70;21.97;;;15.00;88.50;;;;;;5062283;28;20810;-76
2022/10/29 02:55:30;;;;;;;27.03;24.57;;;15.00;88.60;;;;;;5058863;28;20482;-76
2022/10/29 02:57:57;;;;;;;26.73;24.17;;;15.10;88.70;;;;;;5065648;28;20950;-76
2022/10/29 03:00:24;;;;;;;24.47;22.27;;;15.10;88.50;;;;;;5058259;28;20832;-76
2022/10/29 03:02:52;;;;;;;23.13;21.53;;;15.20;88.50;;;;;;5075167;28;20481;-76
2022/10/29 03:05:19;;;;;;;25.00;22.57;;;15.10;88.50;;;;;;5053599;28;20473;-76
2022/10/29 03:07:46;;;;;;;25.10;23.60;;;15.10;88.50;;;;;;5052175;28;20586;-76
2022/10/29 03:10:14;;;;;;;25.40;23.67;;;15.10;88.60;;;;;;5059451;28;20458;-76
2022/10/29 03:12:41;;;;;;;24.53;22.33;;;15.20;88.70;;;;;;5061923;28;20824;-76
2022/10/29 03:15:09;;;;;;;24.47;22.17;;;15.20;88.60;;;;;;5068228;28;20835;-76
2022/10/29 03:17:35;;;;;;;24.33;22.60;;;15.20;88.30;;;;;;5058477;28;20478;-76
2022/10/29 03:20:03;;;;;;;26.57;24.07;;;15.30;88.20;;;;;;5049093;28;20998;-76
2022/10/29 03:22:30;;;;;;;25.37;23.67;;;15.30;88.20;;;;;;5048276;28;20510;-76
2022/10/29 03:24:57;;;;;;;24.60;22.57;;;15.30;88.10;;;;;;5063586;28;20481;-76
2022/10/29 03:27:25;;;;;;;25.13;23.20;;;15.30;88.00;;;;;;5054928;28;20533;-76
2022/10/29 03:29:52;;;;;;;24.10;22.13;;;15.30;88.10;;;;;;5049960;28;20796;-76
2022/10/29 03:32:19;;;;;;;23.30;21.80;;;15.30;88.30;;;;;;5052748;28;20955;-76
2022/10/29 03:34:46;;;;;;;23.87;22.27;;;15.30;88.20;;;;;;5047500;28;20467;-76
2022/10/29 03:37:12;;;;;;;27.23;24.67;;;15.30;88.20;;;;;;5062266;28;20454;-76
2022/10/29 03:39:39;;;;;;;25.37;23.60;;;15.30;88.10;;;;;;5056125;28;20464;-76
2022/10/29 03:42:06;;;;;;;25.30;23.33;;;15.30;88.10;;;;;;5059872;28;20450;-76
2022/10/29 03:44:34;;;;;;;32.43;29.93;;;15.30;88.10;;;;;;5047651;28;20561;-76
2022/10/29 03:47:01;;;;;;;26.50;24.20;;;15.30;88.00;;;;;;5079500;28;20480;-76
2022/10/29 03:49:28;;;;;;;26.07;24.10;;;15.30;88.20;;;;;;5081247;28;20512;-76
2022/10/29 03:51:55;;;;;;;26.07;24.00;;;15.30;88.30;;;;;;5056077;28;20816;-76
2022/10/29 03:54:22;;;;;;;25.93;23.60;;;15.30;88.60;;;;;;5054499;28;20605;-76
2022/10/29 03:56:49;;;;;;;25.20;23.40;;;15.20;88.60;;;;;;5058119;28;20530;-76
2022/10/29 03:59:15;;;;;;;23.80;21.97;;;15.30;88.60;;;;;;5071197;28;20451;-76
2022/10/29 04:01:44;;;;;;;25.27;23.50;;;15.30;88.50;;;;;;5068388;28;20814;-76
2022/10/29 04:04:11;;;;;;;25.83;23.47;;;15.30;88.40;;;;;;5062703;28;20457;-76
2022/10/29 04:06:37;;;;;;;24.73;22.80;;;15.30;88.50;;;;;;5010779;28;1103653;-76
2022/10/29 04:09:04;;;;;;;24.70;22.73;;;15.30;88.50;;;;;;5057031;28;20287;-76
2022/10/29 04:11:31;;;;;;;24.77;22.90;;;15.30;88.50;;;;;;5057963;28;20458;-76
2022/10/29 04:13:58;;;;;;;24.63;22.20;;;15.30;88.50;;;;;;5054378;28;20474;-76
2022/10/29 04:16:25;;;;;;;23.33;21.50;;;15.30;88.30;;;;;;5060296;28;20469;-76
2022/10/29 04:18:53;;;;;;;25.10;22.80;;;15.20;88.70;;;;;;5059533;28;20928;-76
2022/10/29 04:21:20;;;;;;;23.50;21.93;;;15.20;88.90;;;;;;5059354;28;20462;-76
2022/10/29 04:23:49;;;;;;;23.27;21.50;;;15.10;88.90;;;;;;5056290;28;20949;-76
2022/10/29 04:26:16;;;;;;;24.50;22.70;;;15.10;89.10;;;;;;5061290;28;20575;-76
2022/10/29 04:28:42;;;;;;;25.10;23.00;;;15.10;89.10;;;;;;5057576;28;20458;-76
2022/10/29 04:31:12;;;;;;;29.87;27.53;;;15.10;89.00;;;;;;5057753;28;20458;-76
2022/10/29 04:33:39;;;;;;;23.57;21.77;;;15.10;89.00;;;;;;5045422;28;20457;-76
2022/10/29 04:36:08;;;;;;;22.80;21.03;;;15.10;89.00;;;;;;5050461;28;20818;-76
2022/10/29 04:38:35;;;;;;;21.33;19.83;;;15.10;89.10;;;;;;5049967;28;20459;-76
2022/10/29 04:41:02;;;;;;;22.10;20.43;;;15.10;89.20;;;;;;5069038;28;20500;-76
2022/10/29 04:43:29;;;;;;;22.37;20.60;;;15.10;89.10;;;;;;5046897;28;20465;-76
2022/10/29 04:45:58;;;;;;;27.43;25.43;;;15.10;89.30;;;;;;5063162;28;20865;-76
2022/10/29 04:48:26;;;;;;;24.87;22.57;;;15.00;89.40;;;;;;5049692;28;20462;-76
2022/10/29 04:50:53;;;;;;;23.93;21.93;;;15.00;89.40;;;;;;5058638;28;20466;-76
2022/10/29 04:53:21;;;;;;;24.07;21.77;;;15.00;89.50;;;;;;5048745;28;20467;-76
2022/10/29 04:55:48;;;;;;;26.57;24.47;;;15.00;89.60;;;;;;5048429;28;20570;-76
2022/10/29 04:58:18;;;;;;;23.03;21.33;;;14.90;89.80;;;;;;5057247;28;20478;-76
2022/10/29 05:00:45;;;;;;;22.80;21.10;;;14.90;89.90;;;;;;5056363;28;20798;-76
2022/10/29 05:03:12;;;;;;;35.60;33.33;;;14.80;90.30;;;;;;5057773;28;20455;-76
2022/10/29 05:05:40;;;;;;;22.83;21.37;;;14.80;90.30;;;;;;5057710;28;20505;-76
2022/10/29 05:08:07;;;;;;;22.43;20.73;;;14.90;90.00;;;;;;5053691;28;20450;-76
2022/10/29 05:10:38;;;;;;;26.17;23.67;;;14.80;90.10;;;;;;5057389;28;22730;-76
2022/10/29 05:13:07;;;;;;;24.97;22.83;;;14.80;90.20;;;;;;5054604;28;20925;-76
2022/10/29 05:15:34;;;;;;;25.63;23.07;;;14.70;90.30;;;;;;5053098;28;21019;-76
2022/10/29 05:18:02;;;;;;;23.93;21.67;;;14.70;90.50;;;;;;5049512;28;20455;-76
2022/10/29 05:20:29;;;;;;;25.57;23.67;;;14.60;90.70;;;;;;5051814;28;20983;-75
2022/10/29 05:23:00;;;;;;;23.73;21.40;;;14.60;90.70;;;;;;5047921;28;20963;-76
2022/10/29 05:25:28;;;;;;;23.07;21.57;;;14.60;90.70;;;;;;5050000;28;20478;-76
2022/10/29 05:28:04;;;;;;;23.33;21.33;;;14.60;91.00;;;;;;5048937;28;20863;-76
2022/10/29 05:30:31;;;;;;;40.27;37.33;;;14.60;91.00;;;;;;5060968;28;21038;-76
2022/10/29 05:32:58;;;;;;;22.40;20.40;;;14.50;91.20;;;;;;5057178;28;20485;-77
2022/10/29 05:35:25;;;;;;;26.33;23.90;;;14.40;91.40;;;;;;5054913;28;20566;-75
2022/10/29 05:37:53;;;;;;;31.37;29.33;;;14.40;91.50;;;;;;5055911;28;20489;-74
2022/10/29 05:40:20;;;;;;;37.70;35.10;;;14.40;91.40;;;;;;5052726;28;20521;-75
2022/10/29 05:42:47;;;;;;;27.17;25.00;;;14.30;91.70;;;;;;5055972;28;20465;-75
2022/10/29 05:45:16;;;;;;;22.60;21.00;;;14.30;91.80;;;;;;5057516;28;21664;-75
2022/10/29 05:47:43;;;;;;;23.67;21.77;;;14.20;92.00;;;;;;5050202;28;20888;-76
2022/10/29 05:50:11;;;;;;;23.57;21.57;;;14.20;92.00;;;;;;5063019;28;20450;-74
2022/10/29 05:52:37;;;;;;;20.73;19.10;;;14.20;92.00;;;;;;5055144;28;20461;-75
2022/10/29 05:55:05;;;;;;;24.67;22.77;;;14.20;92.00;;;;;;5064685;28;20481;-75
2022/10/29 05:57:33;;;;;;;29.20;27.20;;;14.10;92.30;;;;;;5058277;28;20454;-76
2022/10/29 05:59:59;;;;;;;22.80;20.53;;;14.10;92.50;;;;;;5068006;28;20527;-74
2022/10/29 06:02:28;;;;;;;23.57;21.97;;;14.00;92.50;;;;;;5053232;28;20488;-76
2022/10/29 06:04:55;;;;;;;22.57;20.67;;;14.00;92.70;;;;;;5064510;28;20569;-75
2022/10/29 06:07:21;;;;;;;21.50;19.90;;;14.00;92.80;;;;;;5063562;28;20535;-74
2022/10/29 06:09:48;;;;;;;22.90;20.93;;;13.90;92.80;;;;;;5061113;28;20554;-74
2022/10/29 06:12:15;;;;;;;29.43;27.50;;;13.90;92.90;;;;;;5071358;28;20454;-76
2022/10/29 06:14:42;;;;;;;20.57;18.63;;;13.80;92.90;;;;;;5057453;28;20488;-73
2022/10/29 06:17:09;;;;;;;23.87;22.17;;;13.80;93.30;;;;;;5058706;28;20461;-72
2022/10/29 06:19:37;;;;;;;22.73;21.03;;;13.80;93.30;;;;;;5056911;28;20450;-74
2022/10/29 06:22:04;;;;;;;22.53;20.90;;;13.80;93.50;;;;;;5067850;28;20460;-75
2022/10/29 06:24:31;;;;;;;22.53;20.73;;;13.80;93.20;;;;;;5060998;28;20458;-76
2022/10/29 06:26:58;;;;;;;25.07;23.17;;;13.80;93.10;;;;;;5051268;28;20469;-75
2022/10/29 06:29:25;;;;;;;21.73;19.83;;;14.00;92.70;;;;;;5066165;28;20461;-75
2022/10/29 06:31:52;;;;;;;24.53;22.30;;;13.90;92.30;;;;;;5061174;28;20461;-77
2022/10/29 06:34:19;;;;;;;24.47;22.70;;;13.90;92.30;;;;;;5058793;28;20442;-79
2022/10/29 06:36:47;;;;;;;21.80;19.90;;;13.80;92.70;;;;;;5071964;28;20541;-75
2022/10/29 06:39:14;;;;;;;27.70;25.63;;;13.80;92.90;;;;;;5064839;28;20455;-75
2022/10/29 06:41:41;;;;;;;27.13;25.23;;;13.80;93.00;;;;;;5083731;28;20544;-75
2022/10/29 06:44:08;;;;;;;22.40;20.30;;;13.80;93.10;;;;;;5063282;28;20454;-74
2022/10/29 06:46:35;;;;;;;22.87;20.97;;;13.90;93.00;;;;;;5062979;28;20484;-74
2022/10/29 06:49:01;;;;;;;23.03;21.20;;;13.90;92.80;;;;;;5052860;28;20459;-75
2022/10/29 06:51:28;;;;;;;25.73;23.65;;;14.00;92.60;;;;;;5060803;28;20470;-76
2022/10/29 06:53:57;;;;;;;23.53;21.43;;;14.10;92.50;;;;;;5062547;28;20764;-76
2022/10/29 06:56:24;;;;;;;27.90;24.50;;;14.20;91.70;;;;;;5071181;28;20565;-77
2022/10/29 06:58:51;;;;;;;23.03;21.23;;;14.10;91.40;;;;;;5055930;28;20560;-77
2022/10/29 07:01:18;;;;;;;28.37;25.30;;;14.10;91.40;;;;;;5057360;28;20654;-78
2022/10/29 07:03:52;;;;;;;24.13;22.03;;;14.10;91.60;;;;;;5069368;28;20558;-78
2022/10/29 07:06:19;;;;;;;23.30;21.50;;;14.10;91.50;;;;;;5070187;28;20573;-79
2022/10/29 07:08:45;;;;;;;23.50;21.00;;;14.10;91.50;;;;;;5055460;28;20458;-75
2022/10/29 07:11:14;;;;;;;45.73;42.73;;;14.10;91.70;;;;;;5068040;28;20461;-75
2022/10/29 07:13:41;;;;;;;39.30;36.80;;;14.20;91.60;;;;;;5066747;28;20953;-75
2022/10/29 07:16:08;;;;;;;23.27;21.43;;;14.40;91.00;;;;;;5071824;28;20556;-76
2022/10/29 07:18:35;;;;;;;30.17;28.00;;;14.50;90.60;;;;;;5059805;28;20470;-76
2022/10/29 07:21:03;;;;;;;32.63;30.27;;;14.70;90.30;;;;;;5051146;28;20856;-79
2022/10/29 07:23:30;;;;;;;29.33;26.77;;;14.70;90.00;;;;;;5050273;28;20962;-75
2022/10/29 07:25:57;;;;;;;25.97;24.17;;;14.80;89.60;;;;;;5052952;28;20560;-75
2022/10/29 07:28:32;;;;;;;25.30;22.90;;;14.80;89.30;;;;;;5050575;28;21106;-75
2022/10/29 07:31:01;;;;;;;23.83;22.03;;;14.90;89.00;;;;;;5048162;28;20469;-75
2022/10/29 07:33:28;;;;;;;28.70;25.87;;;15.00;88.80;;;;;;5053170;28;20558;-76
2022/10/29 07:35:57;;;;;;;26.27;23.73;;;15.10;88.50;;;;;;5049863;28;20489;-76
2022/10/29 07:38:24;;;;;;;23.77;21.80;;;15.20;88.20;;;;;;5049555;28;20471;-75
2022/10/29 07:40:52;;;;;;;32.93;30.63;;;15.30;87.60;;;;;;5066961;28;21014;-76
2022/10/29 07:43:20;;;;;;;25.80;23.77;;;15.40;87.30;;;;;;5049901;28;20481;-75
2022/10/29 07:45:51;;;;;;;27.50;25.60;;;15.50;87.00;;;;;;5050319;28;20484;-75
2022/10/29 07:48:20;;;;;;;28.37;26.10;;;15.70;86.60;;;;;;5052592;28;20465;-75
2022/10/29 07:50:47;;;;;;;27.23;25.23;;;15.70;86.30;;;;;;5051316;28;21046;-76
2022/10/29 07:53:14;;;;;;;29.53;27.53;;;15.90;86.00;;;;;;5053399;28;21046;-76
2022/10/29 07:55:41;;;;;;;33.80;31.20;;;16.00;85.50;;;;;;5053954;28;20485;-76
2022/10/29 07:58:11;;;;;;;28.47;26.20;;;16.20;85.10;;;;;;5054217;28;20463;-75
2022/10/29 08:00:39;;;;;;;41.87;39.17;;;16.30;84.50;;;;;;5051079;28;20847;-75
2022/10/29 08:03:09;;;;;;;33.60;30.90;;;16.40;84.40;;;;;;5057586;28;20450;-76
2022/10/29 08:05:36;;;;;;;31.87;29.37;;;16.60;84.00;;;;;;5058199;28;20481;-75
2022/10/29 08:08:04;;;;;;;26.13;24.30;;;16.70;83.20;;;;;;5065480;28;20613;-75
2022/10/29 08:10:31;;;;;;;34.50;31.77;;;16.90;83.00;;;;;;5051074;28;20459;-76
2022/10/29 08:13:00;;;;;;;44.03;40.43;;;17.10;82.60;;;;;;5047476;28;20457;-75
2022/10/29 08:15:29;;;;;;;26.77;24.80;;;17.20;82.20;;;;;;5053490;28;20481;-76
2022/10/29 08:17:56;;;;;;;28.53;26.47;;;17.40;81.70;;;;;;5052161;28;20450;-76
2022/10/29 08:20:27;;;;;;;35.97;33.03;;;17.60;81.50;;;;;;5068757;28;20588;-75
2022/10/29 08:22:54;;;;;;;41.57;38.40;;;17.70;80.70;;;;;;5053820;28;20491;-76
2022/10/29 08:25:21;;;;;;;29.57;27.37;;;17.90;80.10;;;;;;5053964;28;20470;-76
2022/10/29 08:27:59;;;;;;;38.03;34.93;;;18.10;79.50;;;;;;5067694;28;20551;-76
2022/10/29 08:30:26;;;;;;;28.17;26.20;;;18.30;78.70;;;;;;5066118;28;20461;-75
2022/10/29 08:32:52;;;;;;;41.47;38.33;;;18.50;78.00;;;;;;5062663;28;20455;-76
2022/10/29 08:35:19;;;;;;;36.93;34.13;;;18.70;77.20;;;;;;5057731;28;20478;-75
2022/10/29 08:37:48;;;;;;;31.17;28.90;;;18.70;76.60;;;;;;5055730;28;20866;-77
2022/10/29 08:40:26;;;;;;;30.33;27.80;;;18.80;76.40;;;;;;5061289;28;20462;-76
2022/10/29 08:43:13;;;;;;;44.50;41.50;;;18.80;76.30;;;;;;5052361;28;20489;-76
2022/10/29 08:45:45;;;;;;;32.43;29.90;;;18.90;76.10;;;;;;5053427;28;20467;-76
2022/10/29 08:48:28;;;;;;;33.93;31.70;;;19.00;75.90;;;;;;5056943;28;20482;-77
2022/10/29 08:51:00;;;;;;;37.47;34.80;;;19.00;75.90;;;;;;5053705;28;20463;-77
2022/10/29 08:53:36;;;;;;;34.40;31.83;;;19.20;75.60;;;;;;5063659;28;20461;-78
2022/10/29 08:56:05;;;;;;;31.17;28.60;;;19.20;75.40;;;;;;5049862;28;20480;-77
2022/10/29 08:58:37;;;;;;;31.87;29.87;;;19.30;74.60;;;;;;5063516;28;20453;-77
2022/10/29 09:01:10;;;;;;;34.93;32.50;;;19.40;74.20;;;;;;5055802;28;20463;-77
2022/10/29 09:03:37;;;;;;;40.30;37.27;;;19.40;73.90;;;;;;5061349;28;20881;-76
2022/10/29 09:06:10;;;;;;;38.43;35.70;;;19.40;73.40;;;;;;5050383;28;20518;-77
2022/10/29 09:09:00;;;;;;;31.33;28.73;;;19.50;73.20;;;;;;5055392;28;20550;-77
2022/10/29 09:11:44;;;;;;;30.77;28.10;;;19.60;73.00;;;;;;5065435;28;20482;-77
2022/10/29 09:14:39;;;;;;;34.20;31.50;;;19.60;72.80;;;;;;5048756;28;20538;-76
2022/10/29 09:17:20;;;;;;;36.20;33.57;;;19.70;72.70;;;;;;5053446;28;20454;-77
2022/10/29 09:20:00;;;;;;;31.33;29.13;;;19.70;72.60;;;;;;5063206;28;20456;-77
2022/10/29 09:22:33;;;;;;;34.03;31.47;;;19.90;72.40;;;;;;5061960;28;20510;-77
2022/10/29 09:25:13;;;;;;;33.40;31.13;;;19.90;72.30;;;;;;5056113;28;20480;-78
2022/10/29 09:27:50;;;;;;;32.87;30.20;;;20.00;72.20;;;;;;5059777;28;20484;-76
2022/10/29 09:30:19;;;;;;;31.20;29.00;;;20.10;72.10;;;;;;5061749;28;20547;-77
2022/10/29 09:32:56;;;;;;;34.43;31.67;;;20.10;71.80;;;;;;5064089;28;20446;-77
2022/10/29 09:35:36;;;;;;;34.90;31.93;;;20.10;72.10;;;;;;5068294;28;20593;-77
2022/10/29 09:38:08;;;;;;;36.43;33.63;;;20.20;72.20;;;;;;5065977;28;20529;-77
2022/10/29 09:40:40;;;;;;;42.37;38.70;;;20.50;71.40;;;;;;5055304;28;20454;-77
2022/10/29 09:43:18;;;;;;;36.97;34.37;;;20.60;70.80;;;;;;5053902;28;20855;-77
2022/10/29 09:45:57;;;;;;;42.10;38.60;;;20.60;70.80;;;;;;5065137;28;20473;-78
2022/10/29 09:48:30;;;;;;;34.27;31.87;;;20.60;70.90;;;;;;5054809;28;20482;-77
2022/10/29 09:51:11;;;;;;;41.47;38.17;;;20.60;70.50;;;;;;5049457;28;20494;-77
2022/10/29 09:53:38;;;;;;;40.60;37.00;;;20.60;70.40;;;;;;5046953;28;20529;-77
2022/10/29 09:56:08;;;;;;;35.37;33.00;;;20.50;70.40;;;;;;5048031;28;20479;-77
2022/10/29 09:58:40;;;;;;;32.40;29.80;;;20.70;70.20;;;;;;5061129;28;20489;-77
2022/10/29 10:01:07;;;;;;;42.77;39.87;;;20.70;70.00;;;;;;5054981;28;20490;-77
2022/10/29 10:03:40;;;;;;;39.40;36.90;;;20.70;70.10;;;;;;5059112;28;20804;-77
2022/10/29 10:06:09;;;;;;;32.47;30.20;;;20.90;69.80;;;;;;5049076;28;20492;-76
2022/10/29 10:09:00;;;;;;;34.83;32.43;;;21.00;69.50;;;;;;5060571;28;20566;-76
2022/10/29 10:11:37;;;;;;;35.73;32.87;;;21.20;69.20;;;;;;5062573;28;20462;-76
2022/10/29 10:14:09;;;;;;;33.23;30.70;;;21.30;68.80;;;;;;5051233;28;20457;-75
2022/10/29 10:16:36;;;;;;;36.63;34.10;;;21.40;68.80;;;;;;5058577;28;20480;-76
2022/10/29 10:19:19;;;;;;;38.23;35.30;;;21.60;68.60;;;;;;5052478;28;20465;-76
2022/10/29 10:21:58;;;;;;;33.60;30.83;;;21.70;68.30;;;;;;5047522;28;20819;-76
2022/10/29 10:24:30;;;;;;;36.10;33.50;;;21.90;68.10;;;;;;5050639;28;20685;-77
2022/10/29 10:26:59;;;;;;;33.70;31.10;;;22.00;67.40;;;;;;5063986;28;20462;-77
2022/10/29 10:29:27;;;;;;;38.77;36.17;;;22.00;66.40;;;;;;5065198;28;20499;-77
2022/10/29 10:32:10;;;;;;;34.57;31.87;;;22.10;66.30;;;;;;5055411;28;20535;-77
2022/10/29 10:34:39;;;;;;;33.10;30.50;;;22.30;66.40;;;;;;5051794;28;20471;-77
2022/10/29 10:37:14;;;;;;;41.20;38.30;;;22.40;65.80;;;;;;5051184;28;20446;-77
2022/10/29 10:39:43;;;;;;;34.00;31.40;;;22.50;65.50;;;;;;5057282;28;20483;-76
2022/10/29 10:42:19;;;;;;;35.37;33.20;;;22.50;65.40;;;;;;5055054;28;20460;-76
2022/10/29 10:44:51;;;;;;;32.50;30.10;;;22.60;65.50;;;;;;5072147;28;20489;-76
2022/10/29 10:47:21;;;;;;;37.77;34.97;;;22.60;65.30;;;;;;5065864;28;20872;-76
2022/10/29 10:49:49;;;;;;;38.20;35.50;;;22.70;65.00;;;;;;5052740;28;20453;-76
2022/10/29 10:52:19;;;;;;;38.27;35.37;;;22.70;65.20;;;;;;5062989;28;20453;-76
2022/10/29 10:54:53;;;;;;;35.80;32.83;;;22.70;65.10;;;;;;5064929;28;20494;-76
2022/10/29 10:57:25;;;;;;;36.50;34.27;;;22.90;65.00;;;;;;5071078;28;20460;-77
2022/10/29 11:00:00;;;;;;;37.63;35.33;;;22.90;65.30;;;;;;5058270;28;20462;-76
2022/10/29 11:02:36;;;;;;;37.83;35.40;;;23.00;65.00;;;;;;5064105;28;20461;-76
2022/10/29 11:05:12;;;;;;;34.73;32.20;;;23.10;64.60;;;;;;5057383;28;20500;-76
2022/10/29 11:07:45;;;;;;;35.90;33.20;;;23.10;64.20;;;;;;5070640;28;20474;-76
2022/10/29 11:10:15;;;;;;;39.47;36.30;;;23.20;64.10;;;;;;5062747;28;20451;-76
2022/10/29 11:12:47;;;;;;;39.13;36.17;;;23.30;63.90;;;;;;5057176;28;20780;-77
2022/10/29 11:15:18;;;;;;;38.87;36.17;;;23.40;63.80;;;;;;5064554;28;20483;-77
2022/10/29 11:17:49;;;;;;;39.57;36.87;;;23.40;63.80;;;;;;5065478;28;20471;-77
2022/10/29 11:20:22;;;;;;;38.47;34.70;;;23.50;63.60;;;;;;5059392;28;20454;-78
2022/10/29 11:22:56;;;;;;;34.30;31.90;;;23.60;63.40;;;;;;5053316;28;20464;-77
2022/10/29 11:25:30;;;;;;;40.57;36.90;;;23.80;62.90;;;;;;5069755;28;20477;-77
2022/10/29 11:28:06;;;;;;;35.37;33.27;;;23.90;62.50;;;;;;5061556;28;21004;-77
2022/10/29 11:30:39;;;;;;;46.10;42.60;;;24.00;62.30;;;;;;5056580;28;20479;-77
2022/10/29 11:33:15;;;;;;;42.80;40.30;;;24.10;62.20;;;;;;5064781;28;20464;-77
2022/10/29 11:35:45;;;;;;;45.23;41.93;;;24.30;61.60;;;;;;5061017;28;20488;-77
2022/10/29 11:38:19;;;;;;;40.37;37.20;;;24.30;61.40;;;;;;5054807;28;20531;-78
2022/10/29 11:40:50;;;;;;;45.03;42.20;;;24.30;61.30;;;;;;5065861;28;20462;-77
2022/10/29 11:43:21;;;;;;;45.03;41.83;;;24.40;61.20;;;;;;5057275;28;20463;-77
2022/10/29 11:45:58;;;;;;;46.60;43.30;;;24.50;60.80;;;;;;5054294;28;20482;-77
2022/10/29 11:48:38;;;;;;;36.17;33.57;;;24.50;61.10;;;;;;5058967;28;20474;-77
2022/10/29 11:51:15;;;;;;;43.03;39.73;;;24.60;61.20;;;;;;5058139;28;20827;-77
2022/10/29 11:53:56;;;;;;;43.73;40.70;;;24.60;61.30;;;;;;5058247;28;20457;-77
2022/10/29 11:56:40;;;;;;;40.60;37.97;;;24.70;61.20;;;;;;5059352;28;20497;-77
2022/10/29 11:59:18;;;;;;;44.27;41.27;;;24.80;61.00;;;;;;5052378;28;20443;-78
2022/10/29 12:01:53;;;;;;;37.00;34.00;;;24.90;61.00;;;;;;5063564;28;21138;-78
2022/10/29 12:04:30;;;;;;;40.07;37.37;;;25.10;60.50;;;;;;5060088;28;20450;-82
2022/10/29 12:07:21;;;;;;;37.20;34.27;;;25.30;60.00;;;;;;5066948;28;20541;-79
2022/10/29 12:10:19;;;;;;;40.23;37.20;;;25.50;59.50;;;;;;5063173;28;20455;-76
2022/10/29 12:12:54;;;;;;;43.77;40.00;;;25.60;58.80;;;;;;5064830;28;20487;-78
2022/10/29 12:15:31;;;;;;;37.47;34.67;;;25.70;58.50;;;;;;5064351;28;20483;-78
2022/10/29 12:18:10;;;;;;;44.07;41.27;;;25.80;58.40;;;;;;5062423;28;20948;-80
2022/10/29 12:20:47;;;;;;;41.43;38.53;;;25.90;58.10;;;;;;5066267;28;20466;-79
2022/10/29 12:23:29;;;;;;;47.37;43.77;;;26.00;58.10;;;;;;5063508;28;21081;-79
2022/10/29 12:26:07;;;;;;;47.37;43.83;;;26.20;57.80;;;;;;5050429;28;20919;-77
2022/10/29 12:28:44;;;;;;;43.33;39.97;;;26.30;57.70;;;;;;5082983;28;20501;-78
2022/10/29 12:31:24;;;;;;;45.77;42.80;;;26.10;58.30;;;;;;5069699;28;20458;-76
2022/10/29 12:34:00;;;;;;;60.67;56.83;;;26.10;58.30;;;;;;5050904;28;20455;-77
2022/10/29 12:36:36;;;;;;;40.57;37.47;;;26.00;58.40;;;;;;5064269;28;20477;-79
2022/10/29 12:39:10;;;;;;;38.10;35.40;;;25.80;59.20;;;;;;5057315;28;20956;-79
2022/10/29 12:41:43;;;;;;;35.37;33.00;;;25.70;59.70;;;;;;5064244;28;20478;-79
2022/10/29 12:44:17;;;;;;;39.07;35.60;;;25.60;59.70;;;;;;5074173;28;20965;-78